sensor_id;sensor_type;location;lat;lon;timestamp;P1;durP1;ratioP1;P2;durP2;ratioP2
46889;SDS011;32625;51.080;16.970;2023-07-08T00:01:12;12.07;;;7.47;;
46889;SDS011;32625;51.080;16.970;2023-07-08T00:03:40;11.10;;;7.47;;
46889;SDS011;32625;51.080;16.970;2023-07-08T00:06:11;13.88;;;8.05;;
46889;SDS011;32625;51.080;16.970;2023-07-08T00:08:44;12.73;;;7.85;;
46889;SDS011;32625;51.080;16.970;2023-07-08T00:11:12;17.60;;;8.50;;
46889;SDS011;32625;51.080;16.970;2023-07-08T00:13:40;15.20;;;8.07;;
46889;SDS011;32625;51.080;16.970;2023-07-08T00:16:11;11.68;;;7.50;;
46889;SDS011;32625;51.080;16.970;2023-07-08T00:18:39;15.02;;;8.32;;
46889;SDS011;32625;51.080;16.970;2023-07-08T00:21:10;18.63;;;8.32;;
46889;SDS011;32625;51.080;16.970;2023-07-08T00:23:48;12.32;;;8.35;;
46889;SDS011;32625;51.080;16.970;2023-07-08T00:28:52;15.70;;;8.82;;
46889;SDS011;32625;51.080;16.970;2023-07-08T00:31:20;18.85;;;9.02;;
46889;SDS011;32625;51.080;16.970;2023-07-08T00:33:52;14.95;;;9.00;;
46889;SDS011;32625;51.080;16.970;2023-07-08T00:36:24;14.75;;;8.60;;
46889;SDS011;32625;51.080;16.970;2023-07-08T00:38:53;14.13;;;8.57;;
46889;SDS011;32625;51.080;16.970;2023-07-08T00:41:25;12.95;;;8.55;;
46889;SDS011;32625;51.080;16.970;2023-07-08T00:43:57;16.15;;;8.82;;
46889;SDS011;32625;51.080;16.970;2023-07-08T00:52:21;13.05;;;8.98;;
46889;SDS011;32625;51.080;16.970;2023-07-08T00:57:26;19.83;;;9.55;;
46889;SDS011;32625;51.080;16.970;2023-07-08T01:00:02;18.40;;;9.80;;
46889;SDS011;32625;51.080;16.970;2023-07-08T01:02:46;16.55;;;9.43;;
46889;SDS011;32625;51.080;16.970;2023-07-08T01:05:18;17.92;;;9.82;;
46889;SDS011;32625;51.080;16.970;2023-07-08T01:07:50;15.50;;;9.75;;
46889;SDS011;32625;51.080;16.970;2023-07-08T01:10:22;18.92;;;8.32;;
46889;SDS011;32625;51.080;16.970;2023-07-08T01:13:01;13.40;;;9.23;;
46889;SDS011;32625;51.080;16.970;2023-07-08T01:15:33;14.13;;;9.02;;
46889;SDS011;32625;51.080;16.970;2023-07-08T01:18:08;12.10;;;8.90;;
46889;SDS011;32625;51.080;16.970;2023-07-08T01:20:36;14.52;;;8.32;;
46889;SDS011;32625;51.080;16.970;2023-07-08T01:23:04;13.23;;;8.20;;
46889;SDS011;32625;51.080;16.970;2023-07-08T01:25:31;13.18;;;8.38;;
46889;SDS011;32625;51.080;16.970;2023-07-08T01:28:00;13.82;;;8.80;;
46889;SDS011;32625;51.080;16.970;2023-07-08T01:30:28;15.10;;;8.90;;
46889;SDS011;32625;51.080;16.970;2023-07-08T01:32:59;13.32;;;8.30;;
46889;SDS011;32625;51.080;16.970;2023-07-08T01:35:32;12.98;;;8.00;;
46889;SDS011;32625;51.080;16.970;2023-07-08T01:38:00;14.15;;;8.38;;
46889;SDS011;32625;51.080;16.970;2023-07-08T01:40:34;12.25;;;8.23;;
46889;SDS011;32625;51.080;16.970;2023-07-08T01:43:03;12.98;;;8.73;;
46889;SDS011;32625;51.080;16.970;2023-07-08T01:45:36;12.68;;;8.30;;
46889;SDS011;32625;51.080;16.970;2023-07-08T01:48:16;15.40;;;7.80;;
46889;SDS011;32625;51.080;16.970;2023-07-08T01:50:47;12.32;;;7.50;;
46889;SDS011;32625;51.080;16.970;2023-07-08T01:53:29;13.85;;;7.55;;
46889;SDS011;32625;51.080;16.970;2023-07-08T01:55:58;12.48;;;7.93;;
46889;SDS011;32625;51.080;16.970;2023-07-08T01:58:26;12.13;;;7.20;;
46889;SDS011;32625;51.080;16.970;2023-07-08T02:00:54;13.02;;;7.80;;
46889;SDS011;32625;51.080;16.970;2023-07-08T02:03:22;9.90;;;7.43;;
46889;SDS011;32625;51.080;16.970;2023-07-08T02:05:50;11.95;;;7.38;;
46889;SDS011;32625;51.080;16.970;2023-07-08T02:08:17;11.13;;;7.38;;
46889;SDS011;32625;51.080;16.970;2023-07-08T02:10:50;9.23;;;6.80;;
46889;SDS011;32625;51.080;16.970;2023-07-08T02:13:19;10.02;;;7.03;;
46889;SDS011;32625;51.080;16.970;2023-07-08T02:15:47;11.38;;;7.40;;
46889;SDS011;32625;51.080;16.970;2023-07-08T02:18:15;11.05;;;7.43;;
46889;SDS011;32625;51.080;16.970;2023-07-08T02:20:45;9.75;;;6.53;;
46889;SDS011;32625;51.080;16.970;2023-07-08T02:23:14;11.85;;;7.43;;
46889;SDS011;32625;51.080;16.970;2023-07-08T02:25:43;10.00;;;6.35;;
46889;SDS011;32625;51.080;16.970;2023-07-08T02:28:20;11.73;;;7.05;;
46889;SDS011;32625;51.080;16.970;2023-07-08T02:30:48;10.60;;;7.30;;
46889;SDS011;32625;51.080;16.970;2023-07-08T02:33:15;12.82;;;7.20;;
46889;SDS011;32625;51.080;16.970;2023-07-08T02:35:44;9.23;;;6.45;;
46889;SDS011;32625;51.080;16.970;2023-07-08T02:38:12;10.38;;;7.07;;
46889;SDS011;32625;51.080;16.970;2023-07-08T02:40:39;10.63;;;7.03;;
46889;SDS011;32625;51.080;16.970;2023-07-08T02:43:07;12.35;;;6.55;;
46889;SDS011;32625;51.080;16.970;2023-07-08T02:45:34;10.00;;;6.90;;
46889;SDS011;32625;51.080;16.970;2023-07-08T02:48:02;9.30;;;6.00;;
46889;SDS011;32625;51.080;16.970;2023-07-08T02:50:31;13.80;;;6.57;;
46889;SDS011;32625;51.080;16.970;2023-07-08T02:52:58;8.50;;;6.32;;
46889;SDS011;32625;51.080;16.970;2023-07-08T02:55:25;12.43;;;7.47;;
46889;SDS011;32625;51.080;16.970;2023-07-08T02:57:52;13.48;;;6.60;;
46889;SDS011;32625;51.080;16.970;2023-07-08T03:00:19;9.45;;;6.88;;
46889;SDS011;32625;51.080;16.970;2023-07-08T03:02:46;10.07;;;7.10;;
46889;SDS011;32625;51.080;16.970;2023-07-08T03:05:13;9.15;;;6.80;;
46889;SDS011;32625;51.080;16.970;2023-07-08T03:07:41;10.07;;;6.70;;
46889;SDS011;32625;51.080;16.970;2023-07-08T03:10:08;13.55;;;6.82;;
46889;SDS011;32625;51.080;16.970;2023-07-08T03:12:36;9.40;;;6.05;;
46889;SDS011;32625;51.080;16.970;2023-07-08T03:15:04;15.85;;;6.53;;
46889;SDS011;32625;51.080;16.970;2023-07-08T03:17:32;12.90;;;5.97;;
46889;SDS011;32625;51.080;16.970;2023-07-08T03:19:59;10.70;;;6.30;;
46889;SDS011;32625;51.080;16.970;2023-07-08T03:22:26;11.38;;;5.97;;
46889;SDS011;32625;51.080;16.970;2023-07-08T03:24:53;8.82;;;6.07;;
46889;SDS011;32625;51.080;16.970;2023-07-08T03:27:21;9.50;;;5.80;;
46889;SDS011;32625;51.080;16.970;2023-07-08T03:29:49;12.75;;;7.03;;
46889;SDS011;32625;51.080;16.970;2023-07-08T03:32:16;13.32;;;7.40;;
46889;SDS011;32625;51.080;16.970;2023-07-08T03:34:44;13.10;;;7.40;;
46889;SDS011;32625;51.080;16.970;2023-07-08T03:37:12;13.32;;;6.82;;
46889;SDS011;32625;51.080;16.970;2023-07-08T03:39:39;13.13;;;7.65;;
46889;SDS011;32625;51.080;16.970;2023-07-08T03:42:06;12.25;;;7.88;;
46889;SDS011;32625;51.080;16.970;2023-07-08T03:44:33;19.02;;;9.25;;
46889;SDS011;32625;51.080;16.970;2023-07-08T03:47:00;14.02;;;8.25;;
46889;SDS011;32625;51.080;16.970;2023-07-08T03:49:28;14.15;;;7.78;;
46889;SDS011;32625;51.080;16.970;2023-07-08T03:51:55;13.27;;;7.63;;
46889;SDS011;32625;51.080;16.970;2023-07-08T03:54:23;16.05;;;8.25;;
46889;SDS011;32625;51.080;16.970;2023-07-08T03:56:54;13.75;;;7.85;;
46889;SDS011;32625;51.080;16.970;2023-07-08T03:59:24;12.48;;;7.88;;
46889;SDS011;32625;51.080;16.970;2023-07-08T04:01:53;16.45;;;7.68;;
46889;SDS011;32625;51.080;16.970;2023-07-08T04:04:22;10.90;;;7.50;;
46889;SDS011;32625;51.080;16.970;2023-07-08T04:06:49;14.20;;;7.95;;
46889;SDS011;32625;51.080;16.970;2023-07-08T04:09:17;9.52;;;6.95;;
46889;SDS011;32625;51.080;16.970;2023-07-08T04:11:44;12.35;;;8.10;;
46889;SDS011;32625;51.080;16.970;2023-07-08T04:14:11;15.20;;;8.05;;
46889;SDS011;32625;51.080;16.970;2023-07-08T04:16:48;10.38;;;7.07;;
46889;SDS011;32625;51.080;16.970;2023-07-08T04:19:23;15.98;;;7.85;;
46889;SDS011;32625;51.080;16.970;2023-07-08T04:21:53;12.60;;;7.70;;
46889;SDS011;32625;51.080;16.970;2023-07-08T04:24:21;15.38;;;7.60;;
46889;SDS011;32625;51.080;16.970;2023-07-08T04:26:48;12.45;;;7.65;;
46889;SDS011;32625;51.080;16.970;2023-07-08T04:29:16;11.00;;;7.43;;
46889;SDS011;32625;51.080;16.970;2023-07-08T04:31:45;10.30;;;7.10;;
46889;SDS011;32625;51.080;16.970;2023-07-08T04:34:13;8.68;;;6.95;;
46889;SDS011;32625;51.080;16.970;2023-07-08T04:36:41;11.57;;;6.30;;
46889;SDS011;32625;51.080;16.970;2023-07-08T04:39:09;9.48;;;7.05;;
46889;SDS011;32625;51.080;16.970;2023-07-08T04:41:37;10.88;;;6.60;;
46889;SDS011;32625;51.080;16.970;2023-07-08T04:44:08;10.00;;;6.95;;
46889;SDS011;32625;51.080;16.970;2023-07-08T04:46:39;14.85;;;7.78;;
46889;SDS011;32625;51.080;16.970;2023-07-08T04:49:11;15.05;;;8.20;;
46889;SDS011;32625;51.080;16.970;2023-07-08T04:51:40;19.83;;;8.32;;
46889;SDS011;32625;51.080;16.970;2023-07-08T04:54:08;10.52;;;6.97;;
46889;SDS011;32625;51.080;16.970;2023-07-08T04:56:37;13.88;;;6.50;;
46889;SDS011;32625;51.080;16.970;2023-07-08T04:59:07;12.95;;;7.13;;
46889;SDS011;32625;51.080;16.970;2023-07-08T05:01:35;13.10;;;7.45;;
46889;SDS011;32625;51.080;16.970;2023-07-08T05:04:03;11.23;;;6.70;;
46889;SDS011;32625;51.080;16.970;2023-07-08T05:06:34;10.52;;;6.18;;
46889;SDS011;32625;51.080;16.970;2023-07-08T05:09:01;10.55;;;6.38;;
46889;SDS011;32625;51.080;16.970;2023-07-08T05:11:29;12.93;;;5.82;;
46889;SDS011;32625;51.080;16.970;2023-07-08T05:13:57;7.90;;;5.25;;
46889;SDS011;32625;51.080;16.970;2023-07-08T05:16:24;8.73;;;5.93;;
46889;SDS011;32625;51.080;16.970;2023-07-08T05:18:52;8.32;;;5.05;;
46889;SDS011;32625;51.080;16.970;2023-07-08T05:21:19;5.97;;;5.05;;
46889;SDS011;32625;51.080;16.970;2023-07-08T05:23:47;9.70;;;5.55;;
46889;SDS011;32625;51.080;16.970;2023-07-08T05:26:18;12.07;;;6.38;;
46889;SDS011;32625;51.080;16.970;2023-07-08T05:28:45;9.02;;;5.30;;
46889;SDS011;32625;51.080;16.970;2023-07-08T05:31:12;7.32;;;5.50;;
46889;SDS011;32625;51.080;16.970;2023-07-08T05:33:39;7.47;;;4.88;;
46889;SDS011;32625;51.080;16.970;2023-07-08T05:36:06;9.25;;;5.18;;
46889;SDS011;32625;51.080;16.970;2023-07-08T05:38:34;6.32;;;4.85;;
46889;SDS011;32625;51.080;16.970;2023-07-08T05:41:01;7.18;;;4.70;;
46889;SDS011;32625;51.080;16.970;2023-07-08T05:43:28;14.77;;;5.10;;
46889;SDS011;32625;51.080;16.970;2023-07-08T05:45:59;7.85;;;5.35;;
46889;SDS011;32625;51.080;16.970;2023-07-08T05:48:38;10.70;;;5.28;;
46889;SDS011;32625;51.080;16.970;2023-07-08T05:51:06;7.03;;;5.00;;
46889;SDS011;32625;51.080;16.970;2023-07-08T05:53:33;9.38;;;5.20;;
46889;SDS011;32625;51.080;16.970;2023-07-08T05:56:02;7.72;;;4.80;;
46889;SDS011;32625;51.080;16.970;2023-07-08T05:58:29;7.97;;;4.85;;
46889;SDS011;32625;51.080;16.970;2023-07-08T06:00:57;8.32;;;5.25;;
46889;SDS011;32625;51.080;16.970;2023-07-08T06:03:25;7.47;;;4.82;;
46889;SDS011;32625;51.080;16.970;2023-07-08T06:05:53;10.75;;;5.07;;
46889;SDS011;32625;51.080;16.970;2023-07-08T06:08:20;9.68;;;4.88;;
46889;SDS011;32625;51.080;16.970;2023-07-08T06:10:47;7.72;;;4.32;;
46889;SDS011;32625;51.080;16.970;2023-07-08T06:13:16;11.02;;;4.85;;
46889;SDS011;32625;51.080;16.970;2023-07-08T06:15:43;7.00;;;4.45;;
46889;SDS011;32625;51.080;16.970;2023-07-08T06:18:11;8.70;;;4.43;;
46889;SDS011;32625;51.080;16.970;2023-07-08T06:20:38;7.90;;;4.00;;
46889;SDS011;32625;51.080;16.970;2023-07-08T06:23:05;9.57;;;5.35;;
46889;SDS011;32625;51.080;16.970;2023-07-08T06:25:32;9.10;;;4.90;;
46889;SDS011;32625;51.080;16.970;2023-07-08T06:27:59;6.80;;;4.60;;
46889;SDS011;32625;51.080;16.970;2023-07-08T06:30:26;9.40;;;4.63;;
46889;SDS011;32625;51.080;16.970;2023-07-08T06:32:54;13.38;;;5.78;;
46889;SDS011;32625;51.080;16.970;2023-07-08T06:35:22;11.45;;;4.93;;
46889;SDS011;32625;51.080;16.970;2023-07-08T06:37:49;6.75;;;4.50;;
46889;SDS011;32625;51.080;16.970;2023-07-08T06:40:16;12.00;;;4.00;;
46889;SDS011;32625;51.080;16.970;2023-07-08T06:42:46;7.78;;;3.80;;
46889;SDS011;32625;51.080;16.970;2023-07-08T06:45:29;7.65;;;4.13;;
46889;SDS011;32625;51.080;16.970;2023-07-08T06:47:56;5.60;;;4.00;;
46889;SDS011;32625;51.080;16.970;2023-07-08T06:50:23;8.30;;;3.90;;
46889;SDS011;32625;51.080;16.970;2023-07-08T06:52:50;8.88;;;3.42;;
46889;SDS011;32625;51.080;16.970;2023-07-08T06:55:18;8.10;;;4.10;;
46889;SDS011;32625;51.080;16.970;2023-07-08T06:57:45;7.20;;;3.70;;
46889;SDS011;32625;51.080;16.970;2023-07-08T07:00:12;13.80;;;4.05;;
46889;SDS011;32625;51.080;16.970;2023-07-08T07:02:39;10.35;;;3.75;;
46889;SDS011;32625;51.080;16.970;2023-07-08T07:05:06;7.35;;;3.65;;
46889;SDS011;32625;51.080;16.970;2023-07-08T07:07:34;6.50;;;3.83;;
46889;SDS011;32625;51.080;16.970;2023-07-08T07:10:01;6.72;;;3.50;;
46889;SDS011;32625;51.080;16.970;2023-07-08T07:12:29;7.18;;;4.20;;
46889;SDS011;32625;51.080;16.970;2023-07-08T07:15:08;5.18;;;3.80;;
46889;SDS011;32625;51.080;16.970;2023-07-08T07:17:35;11.65;;;3.40;;
46889;SDS011;32625;51.080;16.970;2023-07-08T07:20:03;3.88;;;3.00;;
46889;SDS011;32625;51.080;16.970;2023-07-08T07:22:31;4.70;;;3.40;;
46889;SDS011;32625;51.080;16.970;2023-07-08T07:24:59;6.25;;;2.95;;
46889;SDS011;32625;51.080;16.970;2023-07-08T07:27:26;4.30;;;3.22;;
46889;SDS011;32625;51.080;16.970;2023-07-08T07:29:53;8.77;;;3.03;;
46889;SDS011;32625;51.080;16.970;2023-07-08T07:32:22;5.47;;;2.80;;
46889;SDS011;32625;51.080;16.970;2023-07-08T07:34:50;6.90;;;2.85;;
46889;SDS011;32625;51.080;16.970;2023-07-08T07:37:19;5.47;;;2.70;;
46889;SDS011;32625;51.080;16.970;2023-07-08T07:39:47;7.35;;;2.60;;
46889;SDS011;32625;51.080;16.970;2023-07-08T07:42:15;6.55;;;2.80;;
46889;SDS011;32625;51.080;16.970;2023-07-08T07:44:43;3.08;;;2.67;;
46889;SDS011;32625;51.080;16.970;2023-07-08T07:47:11;6.15;;;2.67;;
46889;SDS011;32625;51.080;16.970;2023-07-08T07:49:39;7.10;;;3.42;;
46889;SDS011;32625;51.080;16.970;2023-07-08T07:52:06;4.32;;;3.00;;
46889;SDS011;32625;51.080;16.970;2023-07-08T07:54:34;7.13;;;2.80;;
46889;SDS011;32625;51.080;16.970;2023-07-08T07:57:01;5.25;;;2.88;;
46889;SDS011;32625;51.080;16.970;2023-07-08T07:59:28;3.30;;;2.47;;
46889;SDS011;32625;51.080;16.970;2023-07-08T08:01:55;5.90;;;2.97;;
46889;SDS011;32625;51.080;16.970;2023-07-08T08:04:22;9.27;;;3.28;;
46889;SDS011;32625;51.080;16.970;2023-07-08T08:06:50;9.20;;;4.05;;
46889;SDS011;32625;51.080;16.970;2023-07-08T08:09:17;10.32;;;3.88;;
46889;SDS011;32625;51.080;16.970;2023-07-08T08:11:44;15.48;;;5.25;;
46889;SDS011;32625;51.080;16.970;2023-07-08T08:14:11;10.80;;;3.30;;
46889;SDS011;32625;51.080;16.970;2023-07-08T08:16:39;9.40;;;4.13;;
46889;SDS011;32625;51.080;16.970;2023-07-08T08:19:07;16.13;;;5.90;;
46889;SDS011;32625;51.080;16.970;2023-07-08T08:21:34;18.52;;;5.78;;
46889;SDS011;32625;51.080;16.970;2023-07-08T08:24:02;20.02;;;5.10;;
46889;SDS011;32625;51.080;16.970;2023-07-08T08:26:29;9.02;;;3.55;;
46889;SDS011;32625;51.080;16.970;2023-07-08T08:28:57;7.60;;;3.67;;
46889;SDS011;32625;51.080;16.970;2023-07-08T08:31:24;5.75;;;2.00;;
46889;SDS011;32625;51.080;16.970;2023-07-08T08:33:51;9.70;;;3.65;;
46889;SDS011;32625;51.080;16.970;2023-07-08T08:36:19;4.75;;;2.60;;
46889;SDS011;32625;51.080;16.970;2023-07-08T08:38:47;7.68;;;2.75;;
46889;SDS011;32625;51.080;16.970;2023-07-08T08:41:16;7.90;;;3.50;;
46889;SDS011;32625;51.080;16.970;2023-07-08T08:43:55;3.72;;;2.40;;
46889;SDS011;32625;51.080;16.970;2023-07-08T08:49:08;3.70;;;2.45;;
46889;SDS011;32625;51.080;16.970;2023-07-08T08:51:59;4.35;;;2.20;;
46889;SDS011;32625;51.080;16.970;2023-07-08T08:54:26;4.57;;;2.30;;
46889;SDS011;32625;51.080;16.970;2023-07-08T08:57:12;6.50;;;2.40;;
46889;SDS011;32625;51.080;16.970;2023-07-08T08:59:45;3.72;;;2.20;;
46889;SDS011;32625;51.080;16.970;2023-07-08T09:02:21;3.83;;;2.50;;
46889;SDS011;32625;51.080;16.970;2023-07-08T09:04:56;3.42;;;2.47;;
46889;SDS011;32625;51.080;16.970;2023-07-08T09:10:04;4.90;;;2.83;;
46889;SDS011;32625;51.080;16.970;2023-07-08T09:12:54;3.88;;;2.50;;
46889;SDS011;32625;51.080;16.970;2023-07-08T09:15:27;3.97;;;2.40;;
46889;SDS011;32625;51.080;16.970;2023-07-08T09:17:54;3.53;;;2.50;;
46889;SDS011;32625;51.080;16.970;2023-07-08T09:20:27;2.55;;;2.28;;
46889;SDS011;32625;51.080;16.970;2023-07-08T09:25:32;4.68;;;2.50;;
46889;SDS011;32625;51.080;16.970;2023-07-08T09:28:21;5.47;;;2.35;;
46889;SDS011;32625;51.080;16.970;2023-07-08T09:31:01;2.72;;;1.92;;
46889;SDS011;32625;51.080;16.970;2023-07-08T09:33:30;3.50;;;2.17;;
46889;SDS011;32625;51.080;16.970;2023-07-08T09:35:59;6.82;;;2.20;;
46889;SDS011;32625;51.080;16.970;2023-07-08T09:38:27;6.50;;;2.70;;
46889;SDS011;32625;51.080;16.970;2023-07-08T09:40:54;5.80;;;2.60;;
46889;SDS011;32625;51.080;16.970;2023-07-08T09:43:27;5.18;;;2.20;;
46889;SDS011;32625;51.080;16.970;2023-07-08T09:46:02;4.78;;;2.25;;
46889;SDS011;32625;51.080;16.970;2023-07-08T09:48:34;8.45;;;3.90;;
46889;SDS011;32625;51.080;16.970;2023-07-08T09:51:03;4.55;;;2.92;;
46889;SDS011;32625;51.080;16.970;2023-07-08T09:53:31;6.93;;;3.50;;
46889;SDS011;32625;51.080;16.970;2023-07-08T09:56:00;4.45;;;2.45;;
46889;SDS011;32625;51.080;16.970;2023-07-08T09:58:30;3.67;;;2.40;;
46889;SDS011;32625;51.080;16.970;2023-07-08T10:01:11;9.73;;;3.40;;
46889;SDS011;32625;51.080;16.970;2023-07-08T10:03:42;4.57;;;2.70;;
46889;SDS011;32625;51.080;16.970;2023-07-08T10:06:42;4.28;;;2.50;;
46889;SDS011;32625;51.080;16.970;2023-07-08T10:09:04;2.20;;;1.97;;
46889;SDS011;32625;51.080;16.970;2023-07-08T10:11:41;4.65;;;2.83;;
46889;SDS011;32625;51.080;16.970;2023-07-08T10:14:16;4.70;;;2.60;;
46889;SDS011;32625;51.080;16.970;2023-07-08T10:16:55;5.70;;;2.85;;
46889;SDS011;32625;51.080;16.970;2023-07-08T10:19:23;3.55;;;2.50;;
46889;SDS011;32625;51.080;16.970;2023-07-08T10:27:40;5.00;;;2.53;;
46889;SDS011;32625;51.080;16.970;2023-07-08T10:30:21;6.80;;;2.42;;
46889;SDS011;32625;51.080;16.970;2023-07-08T10:35:42;3.67;;;2.28;;
46889;SDS011;32625;51.080;16.970;2023-07-08T10:53:02;5.18;;;2.33;;
46889;SDS011;32625;51.080;16.970;2023-07-08T10:55:55;5.40;;;2.27;;
46889;SDS011;32625;51.080;16.970;2023-07-08T11:04:02;4.90;;;2.60;;
46889;SDS011;32625;51.080;16.970;2023-07-08T11:06:41;5.40;;;2.30;;
46889;SDS011;32625;51.080;16.970;2023-07-08T11:09:26;3.75;;;2.20;;
46889;SDS011;32625;51.080;16.970;2023-07-08T11:12:04;3.47;;;2.22;;
46889;SDS011;32625;51.080;16.970;2023-07-08T11:17:42;6.95;;;2.80;;
46889;SDS011;32625;51.080;16.970;2023-07-08T11:20:20;2.90;;;2.13;;
46889;SDS011;32625;51.080;16.970;2023-07-08T11:23:00;3.13;;;2.40;;
46889;SDS011;32625;51.080;16.970;2023-07-08T11:25:32;4.10;;;2.47;;
46889;SDS011;32625;51.080;16.970;2023-07-08T11:28:01;2.80;;;2.13;;
46889;SDS011;32625;51.080;16.970;2023-07-08T11:30:32;2.40;;;2.00;;
46889;SDS011;32625;51.080;16.970;2023-07-08T11:33:02;3.67;;;2.58;;
46889;SDS011;32625;51.080;16.970;2023-07-08T11:38:13;2.67;;;2.03;;
46889;SDS011;32625;51.080;16.970;2023-07-08T11:41:16;4.13;;;2.25;;
46889;SDS011;32625;51.080;16.970;2023-07-08T11:43:42;5.15;;;2.47;;
46889;SDS011;32625;51.080;16.970;2023-07-08T11:46:22;4.55;;;2.08;;
46889;SDS011;32625;51.080;16.970;2023-07-08T11:48:52;6.17;;;2.50;;
46889;SDS011;32625;51.080;16.970;2023-07-08T11:51:23;4.63;;;2.65;;
46889;SDS011;32625;51.080;16.970;2023-07-08T11:56:48;3.53;;;2.30;;
46889;SDS011;32625;51.080;16.970;2023-07-08T12:00:06;4.10;;;2.30;;
46889;SDS011;32625;51.080;16.970;2023-07-08T12:05:16;3.40;;;2.58;;
46889;SDS011;32625;51.080;16.970;2023-07-08T12:07:47;3.33;;;2.35;;
46889;SDS011;32625;51.080;16.970;2023-07-08T12:10:16;6.32;;;2.75;;
46889;SDS011;32625;51.080;16.970;2023-07-08T12:12:49;3.53;;;3.13;;
46889;SDS011;32625;51.080;16.970;2023-07-08T12:15:23;5.35;;;2.97;;
46889;SDS011;32625;51.080;16.970;2023-07-08T12:17:53;4.40;;;2.60;;
46889;SDS011;32625;51.080;16.970;2023-07-08T12:20:28;3.47;;;2.28;;
46889;SDS011;32625;51.080;16.970;2023-07-08T12:22:58;3.13;;;2.17;;
46889;SDS011;32625;51.080;16.970;2023-07-08T12:25:29;8.38;;;4.47;;
46889;SDS011;32625;51.080;16.970;2023-07-08T12:27:59;5.28;;;3.08;;
46889;SDS011;32625;51.080;16.970;2023-07-08T12:30:27;3.88;;;2.38;;
46889;SDS011;32625;51.080;16.970;2023-07-08T12:32:55;8.32;;;2.60;;
46889;SDS011;32625;51.080;16.970;2023-07-08T12:38:00;4.00;;;2.45;;
46889;SDS011;32625;51.080;16.970;2023-07-08T12:40:30;3.78;;;2.47;;
46889;SDS011;32625;51.080;16.970;2023-07-08T12:42:57;5.78;;;2.78;;
46889;SDS011;32625;51.080;16.970;2023-07-08T12:45:29;7.13;;;2.60;;
46889;SDS011;32625;51.080;16.970;2023-07-08T12:47:57;3.47;;;2.55;;
46889;SDS011;32625;51.080;16.970;2023-07-08T12:50:24;5.93;;;2.80;;
46889;SDS011;32625;51.080;16.970;2023-07-08T12:52:51;13.63;;;5.13;;
46889;SDS011;32625;51.080;16.970;2023-07-08T12:55:19;4.28;;;3.00;;
46889;SDS011;32625;51.080;16.970;2023-07-08T12:57:48;4.20;;;2.60;;
46889;SDS011;32625;51.080;16.970;2023-07-08T13:00:25;5.72;;;2.75;;
46889;SDS011;32625;51.080;16.970;2023-07-08T13:03:05;5.75;;;2.60;;
46889;SDS011;32625;51.080;16.970;2023-07-08T13:05:40;4.93;;;2.53;;
46889;SDS011;32625;51.080;16.970;2023-07-08T13:08:15;4.28;;;2.47;;
46889;SDS011;32625;51.080;16.970;2023-07-08T13:10:45;2.85;;;2.28;;
46889;SDS011;32625;51.080;16.970;2023-07-08T13:13:22;4.82;;;2.70;;
46889;SDS011;32625;51.080;16.970;2023-07-08T13:15:51;5.35;;;2.63;;
46889;SDS011;32625;51.080;16.970;2023-07-08T13:18:21;3.15;;;2.50;;
46889;SDS011;32625;51.080;16.970;2023-07-08T13:20:53;6.15;;;2.50;;
46889;SDS011;32625;51.080;16.970;2023-07-08T13:23:25;4.47;;;2.83;;
46889;SDS011;32625;51.080;16.970;2023-07-08T13:25:54;5.20;;;2.40;;
46889;SDS011;32625;51.080;16.970;2023-07-08T13:28:25;4.32;;;3.38;;
46889;SDS011;32625;51.080;16.970;2023-07-08T13:33:31;5.53;;;2.22;;
46889;SDS011;32625;51.080;16.970;2023-07-08T13:36:03;7.85;;;2.80;;
46889;SDS011;32625;51.080;16.970;2023-07-08T13:38:32;5.70;;;2.70;;
46889;SDS011;32625;51.080;16.970;2023-07-08T13:41:03;5.22;;;2.70;;
46889;SDS011;32625;51.080;16.970;2023-07-08T13:43:39;3.33;;;3.03;;
46889;SDS011;32625;51.080;16.970;2023-07-08T13:51:51;4.22;;;2.75;;
46889;SDS011;32625;51.080;16.970;2023-07-08T13:54:23;4.18;;;2.55;;
46889;SDS011;32625;51.080;16.970;2023-07-08T13:57:00;4.75;;;2.30;;
46889;SDS011;32625;51.080;16.970;2023-07-08T13:59:29;3.20;;;2.30;;
46889;SDS011;32625;51.080;16.970;2023-07-08T14:01:56;6.45;;;3.28;;
46889;SDS011;32625;51.080;16.970;2023-07-08T14:04:27;4.15;;;2.70;;
46889;SDS011;32625;51.080;16.970;2023-07-08T14:06:57;3.50;;;2.60;;
46889;SDS011;32625;51.080;16.970;2023-07-08T14:09:24;4.10;;;2.70;;
46889;SDS011;32625;51.080;16.970;2023-07-08T14:11:52;3.45;;;2.70;;
46889;SDS011;32625;51.080;16.970;2023-07-08T14:14:19;11.15;;;2.92;;
46889;SDS011;32625;51.080;16.970;2023-07-08T14:16:50;2.42;;;2.22;;
46889;SDS011;32625;51.080;16.970;2023-07-08T14:19:21;4.82;;;2.78;;
46889;SDS011;32625;51.080;16.970;2023-07-08T14:21:55;4.50;;;2.38;;
46889;SDS011;32625;51.080;16.970;2023-07-08T14:24:28;3.53;;;2.72;;
46889;SDS011;32625;51.080;16.970;2023-07-08T14:26:55;3.45;;;2.55;;
46889;SDS011;32625;51.080;16.970;2023-07-08T14:33:22;3.25;;;2.50;;
46889;SDS011;32625;51.080;16.970;2023-07-08T14:35:49;3.15;;;2.45;;
46889;SDS011;32625;51.080;16.970;2023-07-08T14:38:17;3.45;;;2.67;;
46889;SDS011;32625;51.080;16.970;2023-07-08T14:40:44;3.78;;;2.85;;
46889;SDS011;32625;51.080;16.970;2023-07-08T14:45:53;2.60;;;2.40;;
46889;SDS011;32625;51.080;16.970;2023-07-08T14:48:27;3.42;;;2.58;;
46889;SDS011;32625;51.080;16.970;2023-07-08T14:50:55;3.53;;;2.55;;
46889;SDS011;32625;51.080;16.970;2023-07-08T14:53:23;3.88;;;2.90;;
46889;SDS011;32625;51.080;16.970;2023-07-08T14:55:52;4.15;;;2.97;;
46889;SDS011;32625;51.080;16.970;2023-07-08T15:00:57;3.95;;;2.65;;
46889;SDS011;32625;51.080;16.970;2023-07-08T15:03:27;6.45;;;2.10;;
46889;SDS011;32625;51.080;16.970;2023-07-08T15:05:54;4.03;;;2.80;;
46889;SDS011;32625;51.080;16.970;2023-07-08T15:08:22;4.60;;;3.00;;
46889;SDS011;32625;51.080;16.970;2023-07-08T15:10:50;4.20;;;2.58;;
46889;SDS011;32625;51.080;16.970;2023-07-08T15:13:20;5.53;;;2.97;;
46889;SDS011;32625;51.080;16.970;2023-07-08T15:15:51;6.07;;;3.57;;
46889;SDS011;32625;51.080;16.970;2023-07-08T15:18:18;3.13;;;2.65;;
46889;SDS011;32625;51.080;16.970;2023-07-08T15:20:46;4.65;;;2.58;;
46889;SDS011;32625;51.080;16.970;2023-07-08T15:23:14;3.67;;;2.38;;
46889;SDS011;32625;51.080;16.970;2023-07-08T15:25:42;8.20;;;3.05;;
46889;SDS011;32625;51.080;16.970;2023-07-08T15:28:16;5.05;;;2.92;;
46889;SDS011;32625;51.080;16.970;2023-07-08T15:30:59;5.78;;;3.60;;
46889;SDS011;32625;51.080;16.970;2023-07-08T15:33:30;6.60;;;3.80;;
46889;SDS011;32625;51.080;16.970;2023-07-08T15:35:57;4.05;;;3.03;;
46889;SDS011;32625;51.080;16.970;2023-07-08T15:38:24;3.97;;;2.80;;
46889;SDS011;32625;51.080;16.970;2023-07-08T15:40:52;6.07;;;2.63;;
46889;SDS011;32625;51.080;16.970;2023-07-08T15:43:19;4.70;;;3.47;;
46889;SDS011;32625;51.080;16.970;2023-07-08T15:45:47;5.10;;;2.78;;
46889;SDS011;32625;51.080;16.970;2023-07-08T15:48:15;5.45;;;2.70;;
46889;SDS011;32625;51.080;16.970;2023-07-08T15:50:44;5.25;;;2.58;;
46889;SDS011;32625;51.080;16.970;2023-07-08T15:53:13;6.55;;;3.30;;
46889;SDS011;32625;51.080;16.970;2023-07-08T15:55:43;4.50;;;3.38;;
46889;SDS011;32625;51.080;16.970;2023-07-08T15:58:14;3.75;;;2.50;;
46889;SDS011;32625;51.080;16.970;2023-07-08T16:00:49;7.60;;;3.33;;
46889;SDS011;32625;51.080;16.970;2023-07-08T16:03:26;5.22;;;2.90;;
46889;SDS011;32625;51.080;16.970;2023-07-08T16:05:56;5.45;;;2.90;;
46889;SDS011;32625;51.080;16.970;2023-07-08T16:08:25;3.75;;;2.95;;